createdAt,value
2023-04-15T00:00:46.569Z,100141.66
2023-04-15T00:03:31.662Z,100132.22
2023-04-15T00:06:16.907Z,100136.00
2023-04-15T00:09:02.415Z,100135.34
2023-04-15T00:11:47.731Z,100142.09
2023-04-15T00:14:34.638Z,100143.38
2023-04-15T00:17:19.647Z,100143.78
2023-04-15T00:20:06.296Z,100139.19
2023-04-15T00:22:51.085Z,100134.50
2023-04-15T00:25:36.038Z,100134.38
2023-04-15T00:28:21.557Z,100136.06
2023-04-15T00:31:06.429Z,100135.66
2023-04-15T00:33:51.673Z,100140.94
2023-04-15T00:36:36.492Z,100146.47
2023-04-15T00:39:22.695Z,100151.78
2023-04-15T00:42:07.701Z,100157.75
2023-04-15T00:44:53.086Z,100157.06
2023-04-15T00:47:41.436Z,100156.25
2023-04-15T00:50:26.075Z,100153.91
2023-04-15T00:53:11.062Z,100157.94
2023-04-15T00:55:56.193Z,100142.84
2023-04-15T00:58:41.853Z,100147.69
2023-04-15T01:01:27.292Z,100149.34
2023-04-15T01:04:12.977Z,100141.34
2023-04-15T01:06:57.922Z,100140.81
2023-04-15T01:09:43.023Z,100145.91
2023-04-15T01:12:28.960Z,100139.16
2023-04-15T01:15:14.656Z,100142.31
2023-04-15T01:17:59.825Z,100139.28
2023-04-15T01:20:44.784Z,100138.06
2023-04-15T01:23:29.846Z,100135.28
2023-04-15T01:26:16.211Z,100134.31
2023-04-15T01:29:01.397Z,100131.81
2023-04-15T01:31:53.751Z,100130.44
2023-04-15T01:34:38.989Z,100146.19
2023-04-15T01:37:24.532Z,100130.97
2023-04-15T01:40:12.194Z,100140.53
2023-04-15T01:42:57.015Z,100133.91
2023-04-15T01:45:42.183Z,100137.06
2023-04-15T01:48:27.230Z,100145.63
2023-04-15T01:51:12.780Z,100136.78
2023-04-15T01:53:57.713Z,100140.94
2023-04-15T01:56:42.798Z,100132.22
2023-04-15T01:59:27.596Z,100130.44
2023-04-15T02:02:12.612Z,100136.09
2023-04-15T02:04:57.953Z,100135.53
2023-04-15T02:07:43.432Z,100134.16
2023-04-15T02:10:28.339Z,100142.31
2023-04-15T02:13:13.691Z,100147.97
2023-04-15T02:15:59.605Z,100138.41
2023-04-15T02:18:47.810Z,100155.50
2023-04-15T02:21:32.840Z,100152.47
2023-04-15T02:24:17.837Z,100152.03
2023-04-15T02:27:03.446Z,100150.50
2023-04-15T02:29:50.769Z,100153.81
2023-04-15T02:32:35.795Z,100160.47
2023-04-15T02:35:20.907Z,100156.84
2023-04-15T02:38:06.248Z,100161.28
2023-04-15T02:40:51.093Z,100164.00
2023-04-15T02:43:36.011Z,100161.78
2023-04-15T02:46:22.713Z,100169.59
2023-04-15T02:49:08.425Z,100169.16
2023-04-15T02:51:53.858Z,100173.00
2023-04-15T02:54:38.579Z,100172.44
2023-04-15T02:57:23.627Z,100162.34
2023-04-15T03:00:10.062Z,100166.38
2023-04-15T03:03:02.797Z,100175.38
2023-04-15T03:05:47.625Z,100168.19
2023-04-15T03:08:32.374Z,100174.97
2023-04-15T03:11:18.574Z,100169.69
2023-04-15T03:14:03.394Z,100173.31
2023-04-15T03:16:50.402Z,100171.59
2023-04-15T03:19:35.159Z,100168.41
2023-04-15T03:22:20.407Z,100172.44
2023-04-15T03:25:05.570Z,100174.19
2023-04-15T03:27:50.926Z,100174.41
2023-04-15T03:30:35.945Z,100187.03
2023-04-15T03:33:21.385Z,100195.50
2023-04-15T03:36:06.934Z,100182.41
2023-04-15T03:38:51.757Z,100183.16
2023-04-15T03:41:36.748Z,100190.75
2023-04-15T03:44:21.550Z,100196.75
2023-04-15T03:47:06.588Z,100200.81
2023-04-15T03:49:51.288Z,100208.88
2023-04-15T03:52:36.220Z,100201.16
2023-04-15T03:55:21.324Z,100213.34
2023-04-15T03:58:06.431Z,100216.19
2023-04-15T04:00:51.646Z,100212.31
2023-04-15T04:03:37.948Z,100224.97
2023-04-15T04:06:23.254Z,100231.31
2023-04-15T04:09:08.119Z,100230.63
2023-04-15T04:11:53.437Z,100226.31
2023-04-15T04:14:38.215Z,100225.63
2023-04-15T04:17:23.480Z,100218.41
2023-04-15T04:20:08.601Z,100224.97
2023-04-15T04:22:53.436Z,100216.50
2023-04-15T04:25:38.992Z,100219.09
2023-04-15T04:28:23.858Z,100222.56
2023-04-15T04:31:08.830Z,100223.00
2023-04-15T04:33:53.774Z,100226.00
2023-04-15T04:36:38.653Z,100229.00
2023-04-15T04:39:23.739Z,100227.91
2023-04-15T04:42:08.504Z,100232.09
2023-04-15T04:44:53.796Z,100234.50
2023-04-15T04:47:38.606Z,100234.44
2023-04-15T04:50:23.650Z,100237.81
2023-04-15T04:53:08.275Z,100242.38
2023-04-15T04:55:53.500Z,100236.03
2023-04-15T04:58:38.345Z,100244.41
2023-04-15T05:01:23.418Z,100245.63
2023-04-15T05:04:08.391Z,100248.56
2023-04-15T05:06:53.219Z,100264.38
2023-04-15T05:09:38.195Z,100270.47
2023-04-15T05:12:23.143Z,100265.69
2023-04-15T05:15:08.795Z,100260.50
2023-04-15T05:17:53.524Z,100267.41
2023-04-15T05:20:38.418Z,100277.63
2023-04-15T05:23:23.283Z,100281.28
2023-04-15T05:26:08.012Z,100285.25
2023-04-15T05:28:53.069Z,100286.53
2023-04-15T05:31:37.812Z,100279.94
2023-04-15T05:34:22.898Z,100275.59
2023-04-15T05:37:07.783Z,100284.06
2023-04-15T05:39:52.657Z,100287.31
2023-04-15T05:42:37.514Z,100288.63
2023-04-15T05:45:22.604Z,100288.91
2023-04-15T05:48:08.229Z,100283.88
2023-04-15T05:50:53.160Z,100295.53
2023-04-15T05:53:38.706Z,100291.44
2023-04-15T05:56:23.523Z,100288.97
2023-04-15T05:59:08.510Z,100287.88
2023-04-15T06:01:53.664Z,100290.91
2023-04-15T06:04:39.447Z,100291.34
2023-04-15T06:07:24.698Z,100284.38
2023-04-15T06:10:10.382Z,100280.91
2023-04-15T06:12:55.285Z,100293.59
2023-04-15T06:15:40.005Z,100293.31
2023-04-15T06:18:25.254Z,100300.16
2023-04-15T06:21:10.470Z,100298.13
2023-04-15T06:23:56.653Z,100298.84
2023-04-15T06:26:41.530Z,100303.78
2023-04-15T06:29:26.574Z,100311.56
2023-04-15T06:32:12.176Z,100315.06
2023-04-15T06:34:57.056Z,100322.16
2023-04-15T06:37:41.898Z,100322.94
2023-04-15T06:40:27.707Z,100319.44
2023-04-15T06:43:12.818Z,100315.06
2023-04-15T06:45:58.102Z,100309.47
2023-04-15T06:48:42.608Z,100314.16
2023-04-15T06:51:27.706Z,100306.59
2023-04-15T06:54:12.461Z,100322.19
2023-04-15T06:56:57.735Z,100325.00
2023-04-15T06:59:43.282Z,100333.31
2023-04-15T07:02:28.286Z,100331.19
2023-04-15T07:05:13.462Z,100321.41
2023-04-15T07:07:58.489Z,100340.91
2023-04-15T07:10:43.513Z,100336.97
2023-04-15T07:13:31.885Z,100340.06
2023-04-15T07:16:17.228Z,100345.38
2023-04-15T07:19:02.288Z,100342.91
2023-04-15T07:21:47.640Z,100349.94
2023-04-15T07:24:32.792Z,100346.75
2023-04-15T07:27:17.978Z,100350.91
2023-04-15T07:30:03.258Z,100355.13
2023-04-15T07:32:48.223Z,100348.84
2023-04-15T07:35:33.300Z,100358.91
2023-04-15T07:38:18.364Z,100362.44
2023-04-15T07:41:03.353Z,100366.59
2023-04-15T07:43:48.701Z,100369.66
2023-04-15T07:46:33.571Z,100375.63
2023-04-15T07:49:19.373Z,100371.28
2023-04-15T07:52:04.541Z,100374.63
2023-04-15T07:54:49.422Z,100369.97
2023-04-15T07:57:37.623Z,100375.78
2023-04-15T08:00:22.717Z,100374.31
2023-04-15T08:03:07.849Z,100375.88
2023-04-15T08:05:52.994Z,100379.88
2023-04-15T08:08:37.816Z,100385.03
2023-04-15T08:11:24.350Z,100384.25
2023-04-15T08:14:09.058Z,100397.75
2023-04-15T08:16:53.926Z,100401.44
2023-04-15T08:19:40.690Z,100393.38
2023-04-15T08:22:25.788Z,100395.88
2023-04-15T08:25:10.859Z,100393.28
2023-04-15T08:27:57.874Z,100393.16
2023-04-15T08:30:42.935Z,100390.03
2023-04-15T08:33:28.794Z,100395.91
2023-04-15T08:36:13.894Z,100390.91
2023-04-15T08:39:01.282Z,100393.91
2023-04-15T08:41:51.562Z,100407.84
2023-04-15T08:44:40.051Z,100408.63
2023-04-15T08:47:29.768Z,100409.84
2023-04-15T08:50:16.547Z,100408.13
2023-04-15T08:53:02.426Z,100404.94
2023-04-15T08:55:57.152Z,100402.72
2023-04-15T08:58:44.057Z,100413.47
2023-04-15T09:01:29.414Z,100415.09
2023-04-15T09:04:14.824Z,100416.94
2023-04-15T09:06:59.592Z,100417.50
2023-04-15T09:09:44.378Z,100419.09
2023-04-15T09:12:29.421Z,100411.00
2023-04-15T09:15:16.276Z,100417.41
2023-04-15T09:18:01.378Z,100425.09
2023-04-15T09:20:46.087Z,100428.28
2023-04-15T09:23:32.454Z,100435.88
2023-04-15T09:26:17.217Z,100437.91
2023-04-15T09:29:07.387Z,100441.22
2023-04-15T09:31:52.707Z,100445.47
2023-04-15T09:34:38.334Z,100454.38
2023-04-15T09:37:35.489Z,100456.41
2023-04-15T09:40:37.033Z,100467.72
2023-04-15T09:43:22.784Z,100461.63
2023-04-15T09:46:08.059Z,100464.13
2023-04-15T09:49:10.135Z,100467.81
2023-04-15T09:52:05.826Z,100465.03
2023-04-15T09:54:55.214Z,100474.94
2023-04-15T09:57:44.559Z,100480.34
2023-04-15T10:00:29.697Z,100473.66
2023-04-15T10:03:20.182Z,100475.34
2023-04-15T10:06:05.595Z,100467.84
2023-04-15T10:08:51.004Z,100481.88
2023-04-15T10:11:35.839Z,100480.28
2023-04-15T10:14:21.905Z,100486.81
2023-04-15T10:17:08.233Z,100486.31
2023-04-15T10:19:54.857Z,100491.44
2023-04-15T10:22:42.120Z,100481.22
2023-04-15T10:25:26.956Z,100486.19
2023-04-15T10:28:12.184Z,100483.38
2023-04-15T10:30:59.212Z,100482.28
2023-04-15T10:33:44.456Z,100488.75
2023-04-15T10:36:32.083Z,100490.44
2023-04-15T10:39:43.597Z,100492.59
2023-04-15T10:42:35.183Z,100502.91
2023-04-15T10:45:20.206Z,100507.16
2023-04-15T10:48:08.503Z,100511.56
2023-04-15T10:50:57.513Z,100513.31
2023-04-15T10:53:43.014Z,100506.03
2023-04-15T10:56:29.312Z,100513.13
2023-04-15T10:59:16.314Z,100505.91
2023-04-15T11:02:08.188Z,100506.84
2023-04-15T11:04:55.694Z,100507.94
2023-04-15T11:07:46.774Z,100512.69
2023-04-15T11:10:31.572Z,100514.22
2023-04-15T11:13:21.667Z,100510.72
2023-04-15T11:16:07.332Z,100510.88
2023-04-15T11:18:56.035Z,100514.78
2023-04-15T11:21:41.154Z,100517.50
2023-04-15T11:24:28.974Z,100522.13
2023-04-15T11:27:23.710Z,100521.44
2023-04-15T11:30:26.500Z,100524.13
2023-04-15T11:33:12.601Z,100531.19
2023-04-15T11:35:57.275Z,100530.28
2023-04-15T11:38:42.922Z,100535.34
2023-04-15T11:41:27.617Z,100546.31
2023-04-15T11:44:18.845Z,100547.78
2023-04-15T11:47:22.876Z,100544.03
2023-04-15T11:50:16.436Z,100552.03
2023-04-15T11:53:08.391Z,100559.47
2023-04-15T11:55:53.864Z,100556.75
2023-04-15T11:58:39.131Z,100564.94
2023-04-15T12:01:42.222Z,100575.50
2023-04-15T12:04:27.501Z,100574.94
2023-04-15T12:07:12.736Z,100575.97
2023-04-15T12:09:58.212Z,100572.94
2023-04-15T12:12:43.263Z,100579.94
2023-04-15T12:15:28.465Z,100591.19
2023-04-15T12:18:19.294Z,100591.47
2023-04-15T12:21:09.799Z,100599.09
2023-04-15T12:23:56.476Z,100608.38
2023-04-15T12:26:53.304Z,100615.25
2023-04-15T12:29:41.607Z,100612.22
2023-04-15T12:32:27.235Z,100623.34
2023-04-15T12:35:12.091Z,100626.66
2023-04-15T12:37:57.027Z,100634.25
2023-04-15T12:40:42.110Z,100644.19
2023-04-15T12:43:27.541Z,100640.25
2023-04-15T12:46:13.314Z,100644.84
2023-04-15T12:48:58.384Z,100645.81
2023-04-15T12:51:43.365Z,100659.66
2023-04-15T12:54:29.729Z,100657.50
2023-04-15T12:57:14.705Z,100666.97
2023-04-15T12:59:59.749Z,100665.25
2023-04-15T13:02:44.883Z,100672.63
2023-04-15T13:05:29.700Z,100677.97
2023-04-15T13:08:14.817Z,100672.63
2023-04-15T13:10:59.953Z,100690.53
2023-04-15T13:13:44.866Z,100695.00
2023-04-15T13:16:30.513Z,100693.88
2023-04-15T13:19:15.681Z,100693.09
2023-04-15T13:22:00.478Z,100694.47
2023-04-15T13:24:45.453Z,100697.91
2023-04-15T13:27:31.405Z,100704.03
2023-04-15T13:30:16.392Z,100712.19
2023-04-15T13:33:01.324Z,100714.59
2023-04-15T13:35:46.344Z,100721.00
2023-04-15T13:38:31.317Z,100718.16
2023-04-15T13:41:16.330Z,100729.13
2023-04-15T13:44:01.237Z,100738.59
2023-04-15T13:46:46.004Z,100732.44
2023-04-15T13:49:31.135Z,100735.75
2023-04-15T13:52:15.951Z,100743.25
2023-04-15T13:55:18.547Z,100741.56
2023-04-15T13:58:04.559Z,100751.19
2023-04-15T14:00:49.471Z,100757.34
2023-04-15T14:03:35.192Z,100756.34
2023-04-15T14:06:20.511Z,100762.81
2023-04-15T14:09:05.355Z,100770.25
2023-04-15T14:11:50.932Z,100773.41
2023-04-15T14:14:35.945Z,100779.03
2023-04-15T14:17:21.063Z,100777.75
2023-04-15T14:20:07.860Z,100770.44
2023-04-15T14:22:52.888Z,100778.88
2023-04-15T14:25:39.153Z,100791.31
2023-04-15T14:28:24.796Z,100786.53
2023-04-15T14:31:09.721Z,100788.47
2023-04-15T14:33:54.725Z,100790.16
2023-04-15T14:36:40.403Z,100796.13
2023-04-15T14:39:25.475Z,100796.97
2023-04-15T14:42:10.389Z,100797.63
2023-04-15T14:44:55.565Z,100799.50
2023-04-15T14:47:40.752Z,100798.16
2023-04-15T14:50:25.644Z,100805.28
2023-04-15T14:53:10.796Z,100817.69
2023-04-15T14:55:55.925Z,100821.31
2023-04-15T14:58:40.828Z,100815.00
2023-04-15T15:01:26.009Z,100815.63
2023-04-15T15:04:11.292Z,100828.78
2023-04-15T15:06:56.374Z,100827.44
2023-04-15T15:09:41.502Z,100831.13
2023-04-15T15:12:26.299Z,100829.00
2023-04-15T15:15:19.819Z,100832.88
2023-04-15T15:18:14.773Z,100825.50
2023-04-15T15:20:59.810Z,100835.28
2023-04-15T15:23:45.074Z,100837.94
2023-04-15T15:26:30.237Z,100838.78
2023-04-15T15:29:14.977Z,100843.56
2023-04-15T15:32:00.161Z,100837.28
2023-04-15T15:34:45.042Z,100852.50
2023-04-15T15:37:30.746Z,100858.78
2023-04-15T15:40:15.493Z,100857.72
2023-04-15T15:43:00.606Z,100867.03
2023-04-15T15:45:45.563Z,100872.75
2023-04-15T15:48:30.313Z,100877.53
2023-04-15T15:51:15.252Z,100886.44
2023-04-15T15:54:00.902Z,100893.03
2023-04-15T15:56:45.843Z,100895.03
2023-04-15T15:59:30.809Z,100899.34
2023-04-15T16:02:16.117Z,100896.69
2023-04-15T16:05:01.114Z,100905.00
2023-04-15T16:07:45.985Z,100911.47
2023-04-15T16:10:31.376Z,100912.44
2023-04-15T16:13:16.118Z,100911.06
2023-04-15T16:16:01.246Z,100922.22
2023-04-15T16:18:45.924Z,100920.88
2023-04-15T16:21:31.436Z,100926.84
2023-04-15T16:24:16.552Z,100928.34
2023-04-15T16:27:01.891Z,100930.41
2023-04-15T16:29:47.065Z,100930.63
2023-04-15T16:32:31.882Z,100939.56
2023-04-15T16:35:16.871Z,100945.09
2023-04-15T16:38:01.736Z,100950.88
2023-04-15T16:40:46.789Z,100953.66
2023-04-15T16:43:31.870Z,100960.50
2023-04-15T16:46:16.812Z,100964.56
2023-04-15T16:49:01.806Z,100962.50
2023-04-15T16:51:46.626Z,100966.09
2023-04-15T16:54:33.436Z,100964.72
2023-04-15T16:57:18.292Z,100971.81
2023-04-15T17:00:03.804Z,100976.44
2023-04-15T17:02:49.074Z,100972.28
2023-04-15T17:05:34.229Z,100985.63
2023-04-15T17:08:19.419Z,100978.94
2023-04-15T17:11:04.072Z,100987.88
2023-04-15T17:13:49.336Z,100995.78
2023-04-15T17:16:34.092Z,100990.78
2023-04-15T17:19:19.273Z,100991.69
2023-04-15T17:22:03.966Z,100999.06
2023-04-15T17:24:48.950Z,101000.03
2023-04-15T17:27:34.048Z,100999.72
2023-04-15T17:30:18.942Z,101000.41
2023-04-15T17:33:04.101Z,100998.13
2023-04-15T17:36:09.181Z,101005.03
2023-04-15T17:38:56.075Z,101009.38
2023-04-15T17:41:41.214Z,101012.03
2023-04-15T17:44:26.245Z,101020.56
2023-04-15T17:47:11.409Z,101015.28
2023-04-15T17:49:56.245Z,101021.41
2023-04-15T17:52:41.268Z,101031.41
2023-04-15T17:55:26.303Z,101023.81
2023-04-15T17:58:11.377Z,101029.59
2023-04-15T18:00:59.849Z,101033.50
2023-04-15T18:03:44.939Z,101043.56
2023-04-15T18:06:29.931Z,101044.38
2023-04-15T18:09:14.820Z,101060.34
2023-04-15T18:12:00.057Z,101052.22
2023-04-15T18:14:44.849Z,101066.97
2023-04-15T18:17:30.471Z,101060.75
2023-04-15T18:20:15.818Z,101068.84
2023-04-15T18:23:00.799Z,101073.88
2023-04-15T18:25:45.899Z,101076.50
2023-04-15T18:28:31.184Z,101087.31
2023-04-15T18:31:16.350Z,101082.94
2023-04-15T18:34:04.873Z,101096.56
2023-04-15T18:36:50.134Z,101094.34
2023-04-15T18:39:34.764Z,101099.66
2023-04-15T18:42:20.291Z,101103.03
2023-04-15T18:45:05.832Z,101109.28
2023-04-15T18:47:51.300Z,101117.00
2023-04-15T18:50:36.017Z,101133.56
2023-04-15T18:53:21.288Z,101144.03
2023-04-15T18:56:06.493Z,101149.31
2023-04-15T18:59:08.883Z,101164.78
2023-04-15T19:01:58.812Z,101168.94
2023-04-15T19:04:43.493Z,101174.53
2023-04-15T19:07:30.069Z,101187.03
2023-04-15T19:10:14.883Z,101192.31
2023-04-15T19:12:59.965Z,101205.00
2023-04-15T19:15:44.676Z,101206.06
2023-04-15T19:18:29.749Z,101219.59
2023-04-15T19:21:15.344Z,101225.09
2023-04-15T19:24:00.856Z,101241.38
2023-04-15T19:26:49.947Z,101246.66
2023-04-15T19:29:35.150Z,101254.09
2023-04-15T19:32:21.037Z,101249.25
2023-04-15T19:35:06.621Z,101263.97
2023-04-15T19:37:51.472Z,101267.88
2023-04-15T19:40:36.333Z,101267.56
2023-04-15T19:43:21.352Z,101266.94
2023-04-15T19:46:06.945Z,101275.53
2023-04-15T19:48:53.033Z,101272.41
2023-04-15T19:51:37.883Z,101272.78
2023-04-15T19:54:23.942Z,101282.16
2023-04-15T19:57:08.811Z,101281.44
2023-04-15T19:59:53.929Z,101293.09
2023-04-15T20:02:38.872Z,101286.84
2023-04-15T20:05:24.210Z,101292.91
2023-04-15T20:08:09.635Z,101294.00
2023-04-15T20:10:54.565Z,101291.50
2023-04-15T20:13:39.244Z,101298.78
2023-04-15T20:16:24.789Z,101300.31
2023-04-15T20:19:09.566Z,101296.72
2023-04-15T20:21:54.517Z,101304.50
2023-04-15T20:24:39.329Z,101299.47
2023-04-15T20:27:24.401Z,101303.47
2023-04-15T20:30:09.823Z,101299.69
2023-04-15T20:32:54.934Z,101315.19
2023-04-15T20:35:39.680Z,101309.81
2023-04-15T20:38:24.652Z,101312.38
2023-04-15T20:41:09.435Z,101320.72
2023-04-15T20:43:54.476Z,101334.25
2023-04-15T20:46:39.209Z,101325.31
2023-04-15T20:49:24.299Z,101328.09
2023-04-15T20:52:09.267Z,101332.00
2023-04-15T20:54:54.380Z,101333.69
2023-04-15T20:57:39.177Z,101330.59
2023-04-15T21:00:24.245Z,101334.19
2023-04-15T21:03:09.229Z,101342.16
2023-04-15T21:05:54.106Z,101346.94
2023-04-15T21:08:39.013Z,101348.44
2023-04-15T21:11:43.023Z,101354.66
2023-04-15T21:14:29.678Z,101356.09
2023-04-15T21:17:14.522Z,101353.06
2023-04-15T21:19:59.516Z,101359.09
2023-04-15T21:22:44.615Z,101359.81
2023-04-15T21:25:29.441Z,101367.94
2023-04-15T21:28:14.508Z,101370.75
2023-04-15T21:30:59.532Z,101365.81
2023-04-15T21:33:44.310Z,101373.31
2023-04-15T21:36:29.342Z,101369.78
2023-04-15T21:39:14.256Z,101380.38
2023-04-15T21:41:59.413Z,101390.13
2023-04-15T21:44:44.169Z,101382.44
2023-04-15T21:47:29.280Z,101384.97
2023-04-15T21:50:14.568Z,101393.22
2023-04-15T21:52:59.559Z,101398.50
2023-04-15T21:55:44.219Z,101390.00
2023-04-15T21:58:29.379Z,101389.03
2023-04-15T22:01:14.145Z,101392.53
2023-04-15T22:03:59.288Z,101392.06
2023-04-15T22:06:44.139Z,101393.41
2023-04-15T22:09:29.236Z,101397.25
2023-04-15T22:12:14.080Z,101391.50
2023-04-15T22:14:59.095Z,101384.13
2023-04-15T22:17:43.930Z,101385.03
2023-04-15T22:20:29.127Z,101383.19
2023-04-15T22:23:17.425Z,101390.69
2023-04-15T22:26:02.411Z,101386.78
2023-04-15T22:28:47.307Z,101387.41
2023-04-15T22:31:32.429Z,101389.41
2023-04-15T22:34:21.238Z,101391.91
2023-04-15T22:37:06.284Z,101390.69
2023-04-15T22:39:51.827Z,101399.75
2023-04-15T22:42:36.826Z,101412.97
2023-04-15T22:45:22.063Z,101411.66
2023-04-15T22:48:06.881Z,101409.47
2023-04-15T22:50:52.031Z,101401.31
2023-04-15T22:53:37.187Z,101409.53
2023-04-15T22:56:23.080Z,101415.84
2023-04-15T22:59:08.491Z,101414.53
2023-04-15T23:01:53.875Z,101423.50
2023-04-15T23:04:39.191Z,101425.91
2023-04-15T23:07:24.513Z,101415.38
2023-04-15T23:10:09.691Z,101428.34
2023-04-15T23:12:54.643Z,101433.66
2023-04-15T23:15:39.525Z,101428.09
2023-04-15T23:18:24.674Z,101428.34
2023-04-15T23:21:09.393Z,101422.34
2023-04-15T23:23:54.581Z,101422.75
2023-04-15T23:26:39.505Z,101426.94
2023-04-15T23:29:24.564Z,101432.19
2023-04-15T23:32:09.601Z,101434.31
2023-04-15T23:34:54.665Z,101436.34
2023-04-15T23:37:39.546Z,101435.06
2023-04-15T23:40:24.644Z,101430.97
2023-04-15T23:43:09.301Z,101442.81
2023-04-15T23:45:54.373Z,101436.84
2023-04-15T23:48:40.496Z,101435.53
2023-04-15T23:51:25.299Z,101441.44
2023-04-15T23:54:10.430Z,101452.72
2023-04-15T23:56:55.489Z,101456.69
2023-04-15T23:59:40.404Z,101444.25
